Time;durP1;ratioP1;P1;durP2;ratioP2;P2;SDS_P1;SDS_P2;PMS_P1;PMS_P2;Temp;Humidity;BMP_temperature;BMP_pressure;BME280_temperature;BME280_humidity;BME280_pressure;Samples;Min_cycle;Max_cycle;Signal;HPM_P1;HPM_P2
2021/12/05 00:22:21;;;;;;;8.85;2.70;;;19.10;99.90;;;;;;5010836;28;20489;-74
2021/12/05 00:24:52;;;;;;;11.10;2.38;;;19.10;99.90;;;;;;5012249;28;20490;-74
2021/12/05 00:27:26;;;;;;;8.65;1.30;;;19.10;99.90;;;;;;5017442;28;20108;-75
2021/12/05 00:36:34;;;;;;;11.35;1.40;;;19.50;99.90;;;;;;5019896;28;20525;-75
2021/12/05 01:00:47;;;;;;;8.18;1.60;;;20.20;99.90;;;;;;4989289;28;20049;-75
2021/12/05 01:16:40;;;;;;;15.43;3.25;;;19.70;99.90;;;;;;5012168;28;20014;-74
2021/12/05 01:19:11;;;;;;;11.60;2.97;;;19.70;99.90;;;;;;5012374;28;20094;-72
2021/12/05 01:21:40;;;;;;;14.07;2.45;;;19.70;99.90;;;;;;5012627;28;20028;-73
2021/12/05 01:35:07;;;;;;;10.18;1.50;;;20.00;99.90;;;;;;5013068;28;20482;-73
2021/12/05 01:40:36;;;;;;;7.32;1.90;;;20.10;99.90;;;;;;5011326;28;20040;-74
2021/12/05 01:51:47;;;;;;;12.55;1.95;;;20.00;99.90;;;;;;5012217;28;20862;-73
2021/12/05 01:55:18;;;;;;;16.27;2.42;;;20.00;99.90;;;;;;5011208;28;20427;-72
2021/12/05 01:57:32;;;;;;;11.30;2.90;;;19.90;99.90;;;;;;5004447;28;20137;-71
2021/12/05 02:08:06;;;;;;;12.77;2.25;;;20.10;99.90;;;;;;5009102;28;20079;-73
2021/12/05 02:43:40;;;;;;;13.95;3.45;;;20.00;99.90;;;;;;5013593;28;20079;-72
2021/12/05 02:46:10;;;;;;;11.73;2.00;;;19.90;99.90;;;;;;5014382;28;20366;-70
2021/12/05 02:48:38;;;;;;;13.25;3.20;;;19.90;99.90;;;;;;5016289;28;20017;-72
2021/12/05 02:51:19;;;;;;;17.48;3.55;;;19.90;99.90;;;;;;5015211;28;20069;-71
2021/12/05 02:53:49;;;;;;;18.02;2.42;;;19.90;99.90;;;;;;5017358;28;20029;-73
2021/12/05 02:56:19;;;;;;;11.18;2.13;;;19.80;99.90;;;;;;5017346;28;20032;-71
2021/12/05 02:58:53;;;;;;;9.98;2.65;;;19.80;99.90;;;;;;5024697;28;20040;-71
2021/12/05 03:01:32;;;;;;;10.48;1.92;;;19.90;99.90;;;;;;5032596;28;20081;-73
2021/12/05 03:04:00;;;;;;;8.80;1.70;;;19.90;99.90;;;;;;5043947;28;20386;-71
2021/12/05 03:06:32;;;;;;;12.95;2.60;;;20.00;99.90;;;;;;5042649;28;20020;-72
2021/12/05 03:09:06;;;;;;;8.85;2.33;;;20.00;99.90;;;;;;5044685;28;20719;-70
2021/12/05 03:11:34;;;;;;;13.10;3.35;;;20.00;99.90;;;;;;5045013;28;20104;-72
2021/12/05 03:14:01;;;;;;;11.02;1.52;;;20.00;99.90;;;;;;5044722;28;20021;-72
2021/12/05 03:16:31;;;;;;;9.60;2.20;;;20.00;99.90;;;;;;5042463;28;20044;-71
2021/12/05 03:18:58;;;;;;;12.70;2.33;;;20.00;99.90;;;;;;5042556;28;20056;-71
2021/12/05 03:21:26;;;;;;;11.73;1.50;;;20.10;99.90;;;;;;5042004;28;20029;-71
2021/12/05 03:23:54;;;;;;;13.30;1.92;;;20.00;98.90;;;;;;5044458;28;20021;-71
2021/12/05 03:26:27;;;;;;;8.95;1.80;;;20.00;99.30;;;;;;5042122;28;20017;-71
2021/12/05 03:28:56;;;;;;;11.02;1.55;;;20.10;99.50;;;;;;5044022;28;20076;-71
2021/12/05 03:31:29;;;;;;;13.68;2.08;;;20.10;98.80;;;;;;5041479;28;20458;-72
2021/12/05 03:33:57;;;;;;;10.60;1.50;;;20.10;98.90;;;;;;5044259;28;20049;-71
2021/12/05 03:36:25;;;;;;;9.65;1.80;;;20.10;98.60;;;;;;5041944;28;20028;-72
2021/12/05 03:38:53;;;;;;;9.75;1.95;;;20.00;98.30;;;;;;5044109;28;20032;-72
2021/12/05 03:41:21;;;;;;;6.63;1.98;;;20.10;98.60;;;;;;5040817;28;20555;-70
2021/12/05 03:43:51;;;;;;;11.00;3.13;;;20.10;98.70;;;;;;5044151;28;20462;-70
2021/12/05 03:46:19;;;;;;;8.45;1.55;;;20.20;98.80;;;;;;5042132;28;20025;-71
2021/12/05 03:48:57;;;;;;;9.60;1.80;;;20.30;98.90;;;;;;5043960;28;20091;-70
2021/12/05 03:51:26;;;;;;;11.10;1.23;;;20.30;98.70;;;;;;5041482;28;20021;-71
2021/12/05 03:53:54;;;;;;;9.43;1.95;;;20.30;98.30;;;;;;5044222;28;20104;-71
2021/12/05 03:56:23;;;;;;;9.35;1.92;;;20.30;98.70;;;;;;5042630;28;20029;-71
2021/12/05 03:58:52;;;;;;;8.98;2.05;;;20.20;97.80;;;;;;5044032;28;20504;-71
2021/12/05 04:01:20;;;;;;;10.23;1.98;;;20.20;97.90;;;;;;5041612;28;20079;-71
2021/12/05 04:03:49;;;;;;;10.85;1.30;;;20.20;98.40;;;;;;5042242;28;20028;-71
2021/12/05 04:06:19;;;;;;;10.38;1.63;;;20.20;97.20;;;;;;5042980;28;20029;-71
2021/12/05 04:08:48;;;;;;;10.15;2.20;;;20.20;97.00;;;;;;5042044;28;20060;-72
2021/12/05 04:11:22;;;;;;;10.05;1.55;;;20.20;97.40;;;;;;5040408;28;20052;-72
2021/12/05 04:13:49;;;;;;;12.20;2.45;;;20.10;97.90;;;;;;5040507;28;20101;-72
2021/12/05 04:16:17;;;;;;;11.60;1.50;;;20.00;97.60;;;;;;5040236;28;20516;-73
2021/12/05 04:18:46;;;;;;;8.90;1.85;;;20.00;97.00;;;;;;5040322;28;20021;-72
2021/12/05 04:21:16;;;;;;;11.60;1.65;;;20.00;97.50;;;;;;5041063;28;20025;-72
2021/12/05 04:23:44;;;;;;;9.40;2.25;;;20.00;97.20;;;;;;5039841;28;20082;-72
2021/12/05 04:26:12;;;;;;;11.07;1.42;;;19.90;97.40;;;;;;5041878;28;20864;-71
2021/12/05 04:28:39;;;;;;;6.47;1.88;;;19.90;97.40;;;;;;5037986;28;20056;-71
2021/12/05 04:31:10;;;;;;;8.32;1.75;;;19.90;97.30;;;;;;5040086;28;20025;-71
2021/12/05 04:33:38;;;;;;;7.93;1.60;;;19.90;97.20;;;;;;5037818;28;20102;-70
2021/12/05 04:36:06;;;;;;;8.68;2.13;;;19.90;97.10;;;;;;5040452;28;20158;-72
2021/12/05 04:38:34;;;;;;;9.40;1.45;;;19.90;96.90;;;;;;5038363;28;20590;-73
2021/12/05 04:41:02;;;;;;;9.35;1.77;;;20.00;97.10;;;;;;5040557;28;20110;-70
2021/12/05 04:43:36;;;;;;;6.03;1.38;;;20.00;96.40;;;;;;5038011;28;20378;-72
2021/12/05 04:46:10;;;;;;;7.78;1.42;;;20.00;95.70;;;;;;5040031;28;20394;-71
2021/12/05 04:48:38;;;;;;;10.77;1.60;;;20.10;96.10;;;;;;5036647;28;20112;-74
2021/12/05 04:51:07;;;;;;;11.02;1.90;;;20.10;96.30;;;;;;5040168;28;20551;-72
2021/12/05 04:53:36;;;;;;;10.50;1.95;;;20.10;96.50;;;;;;5037970;28;20025;-71
2021/12/05 04:56:04;;;;;;;15.13;2.20;;;20.20;96.20;;;;;;5040524;28;20032;-71
2021/12/05 04:58:32;;;;;;;6.63;1.20;;;20.20;96.00;;;;;;5037920;28;20083;-72
2021/12/05 05:01:00;;;;;;;13.75;2.03;;;20.20;95.90;;;;;;5039702;28;20057;-71
2021/12/05 05:03:28;;;;;;;10.88;1.95;;;20.20;96.30;;;;;;5038374;28;20068;-72
2021/12/05 05:06:05;;;;;;;11.40;2.55;;;20.20;96.00;;;;;;5039986;28;20021;-72
2021/12/05 05:08:33;;;;;;;7.43;1.60;;;20.20;95.10;;;;;;5039492;28;20017;-71
2021/12/05 05:11:04;;;;;;;9.00;1.30;;;20.20;95.60;;;;;;5037217;28;20053;-70
2021/12/05 05:13:32;;;;;;;10.20;1.80;;;20.30;96.10;;;;;;5039565;28;20078;-70
2021/12/05 05:16:03;;;;;;;11.35;1.75;;;20.20;96.10;;;;;;5037862;28;20638;-71
2021/12/05 05:18:40;;;;;;;10.75;1.52;;;20.30;96.00;;;;;;5039752;28;20028;-72
2021/12/05 05:21:20;;;;;;;12.35;2.30;;;20.30;95.30;;;;;;5038432;28;20423;-72
2021/12/05 05:24:08;;;;;;;10.10;1.42;;;20.30;95.00;;;;;;5037666;28;20102;-72
2021/12/05 05:26:57;;;;;;;15.90;1.80;;;20.30;95.10;;;;;;5038775;28;20197;-70
2021/12/05 05:43:39;;;;;;;8.77;1.60;;;19.90;95.10;;;;;;5039736;28;20059;-73
2021/12/05 05:51:02;;;;;;;8.70;1.65;;;19.90;94.80;;;;;;5016846;28;20033;-73
2021/12/05 05:53:30;;;;;;;8.55;1.65;;;19.90;95.30;;;;;;5018077;28;20493;-71
2021/12/05 05:55:57;;;;;;;11.98;1.95;;;19.90;95.40;;;;;;5017492;28;20071;-70
2021/12/05 05:58:37;;;;;;;9.93;1.42;;;19.90;95.50;;;;;;5018942;28;20435;-71
2021/12/05 06:01:09;;;;;;;13.00;2.25;;;19.90;95.60;;;;;;5016933;28;20045;-71
2021/12/05 06:03:36;;;;;;;8.10;1.50;;;19.80;95.00;;;;;;5017615;28;20100;-72
2021/12/05 06:06:14;;;;;;;11.25;1.58;;;19.80;94.60;;;;;;5017294;28;20021;-73
2021/12/05 06:08:42;;;;;;;9.43;1.77;;;19.90;94.60;;;;;;5019187;28;20458;-70
2021/12/05 06:11:13;;;;;;;10.50;1.75;;;19.90;94.70;;;;;;5017063;28;20136;-71
2021/12/05 06:13:41;;;;;;;8.48;1.65;;;19.90;94.60;;;;;;5018094;28;20708;-71
2021/12/05 06:16:10;;;;;;;8.27;1.80;;;19.80;94.70;;;;;;5017577;28;20474;-72
2021/12/05 06:18:39;;;;;;;9.15;2.45;;;19.90;95.40;;;;;;5018850;28;20041;-71
2021/12/05 06:21:07;;;;;;;11.45;1.60;;;19.90;95.10;;;;;;5016740;28;20025;-70
2021/12/05 06:23:36;;;;;;;8.07;1.90;;;19.90;94.50;;;;;;5018911;28;20412;-73
2021/12/05 06:26:05;;;;;;;8.57;1.17;;;19.90;94.10;;;;;;5016474;28;20024;-71
2021/12/05 06:28:40;;;;;;;9.70;1.52;;;19.80;94.20;;;;;;5018636;28;20042;-71
2021/12/05 06:42:05;;;;;;;10.73;1.70;;;19.60;94.80;;;;;;5017579;28;20022;-70
2021/12/05 06:47:23;;;;;;;10.50;2.28;;;19.50;94.70;;;;;;5016492;28;20027;-70
2021/12/05 06:49:52;;;;;;;9.95;1.63;;;19.50;94.80;;;;;;5018282;28;20087;-71
2021/12/05 06:52:19;;;;;;;11.38;1.63;;;19.50;94.90;;;;;;5016578;28;20128;-70
2021/12/05 06:54:47;;;;;;;7.70;1.30;;;19.50;95.10;;;;;;5018400;28;20033;-70
2021/12/05 06:57:14;;;;;;;12.45;1.55;;;19.50;94.70;;;;;;5016152;28;20030;-71
2021/12/05 06:59:45;;;;;;;7.95;1.50;;;19.50;95.00;;;;;;5018311;28;20113;-72
2021/12/05 07:02:15;;;;;;;10.45;1.65;;;19.50;95.30;;;;;;5016577;28;20072;-72
2021/12/05 07:07:25;;;;;;;11.98;3.65;;;19.50;95.50;;;;;;5016855;28;20021;-72
2021/12/05 07:09:53;;;;;;;12.07;3.15;;;19.40;95.50;;;;;;5017583;28;20030;-71
2021/12/05 07:15:57;;;;;;;11.18;2.35;;;19.30;95.60;;;;;;5016167;28;20540;-71
2021/12/05 07:21:09;;;;;;;8.48;1.73;;;19.30;95.60;;;;;;5018426;28;20072;-73
2021/12/05 07:42:41;;;;;;;13.80;1.98;;;19.10;96.10;;;;;;5015434;28;20056;-72
2021/12/05 07:45:16;;;;;;;7.75;1.63;;;19.00;95.80;;;;;;5021684;28;20095;-72
2021/12/05 07:47:46;;;;;;;12.90;1.83;;;19.00;95.20;;;;;;5019734;28;20816;-71
2021/12/05 07:50:15;;;;;;;11.45;2.40;;;19.00;95.60;;;;;;5021667;28;20025;-70
2021/12/05 07:52:49;;;;;;;10.10;2.40;;;19.00;95.50;;;;;;5018769;28;20013;-71
2021/12/05 07:55:32;;;;;;;8.52;1.88;;;19.00;95.50;;;;;;5021708;28;20501;-71
2021/12/05 08:00:43;;;;;;;13.00;2.60;;;19.00;95.20;;;;;;5018913;28;20393;-71
2021/12/05 08:16:52;;;;;;;6.65;1.50;;;19.00;94.90;;;;;;5020392;28;20056;-71
2021/12/05 08:19:20;;;;;;;7.25;1.50;;;19.00;94.70;;;;;;5021033;28;20103;-72
2021/12/05 08:21:55;;;;;;;9.23;2.17;;;18.90;94.60;;;;;;5018852;28;20084;-72
2021/12/05 08:24:25;;;;;;;10.10;2.08;;;18.90;95.00;;;;;;5021159;28;20029;-72
2021/12/05 08:26:53;;;;;;;9.18;1.73;;;18.90;95.20;;;;;;5019863;28;20096;-71
2021/12/05 08:29:31;;;;;;;7.82;2.78;;;18.90;95.00;;;;;;5019758;28;20069;-70
2021/12/05 08:32:12;;;;;;;13.60;2.45;;;18.90;95.20;;;;;;5021278;28;20032;-72
2021/12/05 09:29:11;;;;;;;9.63;1.98;;;18.60;95.20;;;;;;5019454;28;20037;-71
2021/12/05 09:51:21;;;;;;;11.45;2.00;;;18.50;95.80;;;;;;5004975;28;20037;-69
2021/12/05 10:13:01;;;;;;;14.18;2.30;;;18.40;95.60;;;;;;5014147;28;20804;-69
2021/12/05 10:37:53;;;;;;;12.63;2.70;;;18.50;95.20;;;;;;5012970;28;20044;-69
2021/12/05 10:40:33;;;;;;;8.52;1.45;;;18.70;95.20;;;;;;5013611;28;20116;-70
2021/12/05 10:43:02;;;;;;;12.35;2.30;;;18.60;95.30;;;;;;5010478;28;20029;-68
2021/12/05 10:45:43;;;;;;;10.65;2.33;;;18.50;95.30;;;;;;5014604;28;20045;-70
2021/12/05 10:48:23;;;;;;;7.90;1.98;;;18.50;95.50;;;;;;5011313;28;20036;-72
2021/12/05 10:50:55;;;;;;;9.82;1.65;;;18.50;95.70;;;;;;5011251;28;20029;-70
2021/12/05 10:53:34;;;;;;;16.52;2.08;;;18.50;95.80;;;;;;5013009;28;20522;-68
2021/12/05 10:56:04;;;;;;;12.32;1.60;;;18.50;95.60;;;;;;5012973;28;20013;-69
2021/12/05 10:59:08;;;;;;;8.13;1.70;;;18.60;95.80;;;;;;5011802;28;20022;-71
2021/12/05 11:01:48;;;;;;;7.35;1.52;;;18.60;95.90;;;;;;5016886;28;20447;-71
2021/12/05 11:04:27;;;;;;;13.85;2.50;;;18.60;95.90;;;;;;5016208;28;20021;-69
2021/12/05 11:06:57;;;;;;;11.73;2.38;;;18.50;95.70;;;;;;5017704;28;20105;-69
2021/12/05 11:09:26;;;;;;;11.80;1.83;;;18.50;96.10;;;;;;5016079;28;20381;-69
2021/12/05 11:11:56;;;;;;;8.70;1.58;;;18.50;96.10;;;;;;5017412;28;20014;-70
2021/12/05 11:14:28;;;;;;;13.15;2.80;;;18.50;96.10;;;;;;5015741;28;20025;-68
2021/12/05 11:16:57;;;;;;;10.02;2.25;;;18.50;96.20;;;;;;5016642;28;20029;-69
2021/12/05 11:19:37;;;;;;;8.77;1.30;;;18.50;96.30;;;;;;5018574;28;20482;-70
2021/12/05 11:22:18;;;;;;;11.43;2.60;;;18.40;96.30;;;;;;5021894;28;20067;-68
2021/12/05 11:24:56;;;;;;;6.80;1.30;;;18.40;96.80;;;;;;5020046;28;20173;-68
2021/12/05 11:27:26;;;;;;;8.88;1.63;;;18.40;97.00;;;;;;5021009;28;20374;-69
2021/12/05 11:30:16;;;;;;;12.32;2.13;;;18.30;97.00;;;;;;5021177;28;20036;-70
2021/12/05 11:32:55;;;;;;;9.27;2.60;;;18.20;97.10;;;;;;5019715;28;20095;-71
2021/12/05 11:35:32;;;;;;;6.40;2.20;;;18.10;97.30;;;;;;5021763;28;20022;-70
2021/12/05 11:38:22;;;;;;;13.10;2.45;;;18.00;97.80;;;;;;5020223;28;20438;-68
2021/12/05 11:41:11;;;;;;;10.32;1.83;;;17.90;97.90;;;;;;5018818;28;20056;-68
2021/12/05 11:43:43;;;;;;;11.02;3.05;;;17.80;98.30;;;;;;5019386;28;20024;-70
2021/12/05 11:46:14;;;;;;;10.00;2.20;;;17.70;98.70;;;;;;5022152;28;20026;-69
2021/12/05 11:48:59;;;;;;;11.75;3.00;;;17.60;99.20;;;;;;5019258;28;20032;-67
2021/12/05 11:51:41;;;;;;;12.45;2.38;;;17.60;99.30;;;;;;5020984;28;20117;-69
2021/12/05 11:54:12;;;;;;;15.30;2.53;;;17.40;99.50;;;;;;5021137;28;20163;-68
2021/12/05 11:56:52;;;;;;;7.93;1.65;;;17.30;99.70;;;;;;5019762;28;20108;-69
2021/12/05 11:59:25;;;;;;;10.63;2.05;;;17.30;99.50;;;;;;5020757;28;20378;-69
2021/12/05 12:02:02;;;;;;;12.73;2.13;;;17.30;99.60;;;;;;5019559;28;20029;-70
2021/12/05 12:04:59;;;;;;;13.57;1.80;;;17.30;99.70;;;;;;5020354;28;20057;-69
2021/12/05 12:07:53;;;;;;;12.05;2.17;;;17.40;99.90;;;;;;5021024;28;20040;-71
2021/12/05 12:10:27;;;;;;;9.05;1.95;;;17.60;99.90;;;;;;5020628;28;20087;-70
2021/12/05 12:13:01;;;;;;;9.20;1.85;;;17.60;99.90;;;;;;5018608;28;20505;-69
2021/12/05 12:15:30;;;;;;;15.00;2.17;;;17.70;99.90;;;;;;5021156;28;20037;-70
2021/12/05 12:18:07;;;;;;;10.23;2.00;;;17.70;99.90;;;;;;5017663;28;20187;-68
2021/12/05 12:20:36;;;;;;;9.30;2.13;;;17.80;99.90;;;;;;5020317;28;20497;-70
2021/12/05 12:23:05;;;;;;;14.23;2.38;;;17.80;99.90;;;;;;5020903;28;20355;-71
2021/12/05 12:25:37;;;;;;;8.45;2.30;;;17.80;99.90;;;;;;5020829;28;20048;-69
2021/12/05 12:28:06;;;;;;;12.50;1.88;;;17.80;99.90;;;;;;5020917;28;20499;-69
2021/12/05 12:30:40;;;;;;;11.98;2.88;;;17.80;99.90;;;;;;5019521;28;20036;-70
2021/12/05 12:33:21;;;;;;;8.70;1.50;;;17.80;99.90;;;;;;5019574;28;20040;-70
2021/12/05 12:35:50;;;;;;;11.73;1.73;;;17.80;99.90;;;;;;5018443;28;20076;-68
2021/12/05 12:38:24;;;;;;;13.20;2.28;;;17.80;99.90;;;;;;5021315;28;20025;-69
2021/12/05 12:40:58;;;;;;;12.52;2.28;;;17.90;99.90;;;;;;5018370;28;20037;-72
2021/12/05 12:43:40;;;;;;;11.48;2.05;;;17.90;99.90;;;;;;5019661;28;20429;-68
2021/12/05 12:46:26;;;;;;;10.03;1.23;;;17.90;99.90;;;;;;5020491;28;20111;-71
2021/12/05 12:48:59;;;;;;;12.07;2.53;;;17.90;99.90;;;;;;5017714;28;20032;-68
2021/12/05 12:51:37;;;;;;;11.60;2.45;;;17.90;99.90;;;;;;5019664;28;20677;-68
2021/12/05 12:54:08;;;;;;;10.27;2.20;;;17.90;99.90;;;;;;5018721;28;20033;-69
2021/12/05 12:56:36;;;;;;;11.00;2.40;;;17.90;99.90;;;;;;5019962;28;20017;-70
2021/12/05 12:59:10;;;;;;;14.30;2.58;;;17.80;99.90;;;;;;5018883;28;20663;-69
2021/12/05 13:10:30;;;;;;;13.45;1.77;;;17.80;99.90;;;;;;5020047;28;20021;-69
2021/12/05 13:13:17;;;;;;;9.63;2.00;;;17.70;99.90;;;;;;5017673;28;20156;-69
2021/12/05 13:15:52;;;;;;;14.27;2.00;;;17.70;99.90;;;;;;5018116;28;20013;-68
2021/12/05 13:18:32;;;;;;;10.25;1.85;;;17.70;99.90;;;;;;5019251;28;20025;-68
2021/12/05 13:21:15;;;;;;;11.40;1.98;;;17.70;99.90;;;;;;5017074;28;20033;-70
2021/12/05 13:23:45;;;;;;;9.48;1.60;;;17.60;99.90;;;;;;5019723;28;20013;-69
2021/12/05 13:26:32;;;;;;;11.98;1.55;;;17.70;99.90;;;;;;5017592;28;20067;-71
2021/12/05 13:29:12;;;;;;;11.93;2.58;;;17.70;99.90;;;;;;5018699;28;20051;-69
2021/12/05 13:31:45;;;;;;;11.10;1.90;;;17.80;99.90;;;;;;5019372;28;20474;-67
2021/12/05 13:34:29;;;;;;;12.65;3.50;;;17.80;99.90;;;;;;5017172;28;20029;-72
2021/12/05 13:37:09;;;;;;;9.20;1.65;;;17.90;99.90;;;;;;5019904;28;20022;-70
2021/12/05 13:39:42;;;;;;;11.43;2.38;;;17.90;99.90;;;;;;5016428;28;20108;-71
2021/12/05 13:42:15;;;;;;;9.07;1.50;;;17.90;99.90;;;;;;5018893;28;20021;-71
2021/12/05 13:45:03;;;;;;;14.43;2.38;;;17.90;99.90;;;;;;5018346;28;20028;-68
2021/12/05 13:47:48;;;;;;;13.60;3.25;;;18.00;99.90;;;;;;5016704;28;20051;-72
2021/12/05 13:50:19;;;;;;;15.75;2.58;;;17.90;99.90;;;;;;5018722;28;20025;-71
2021/12/05 13:53:02;;;;;;;13.40;1.83;;;18.00;99.90;;;;;;5018999;28;20029;-70
2021/12/05 13:55:53;;;;;;;7.70;1.27;;;18.00;99.90;;;;;;5016397;28;20025;-71
2021/12/05 13:58:28;;;;;;;11.65;1.20;;;18.00;99.90;;;;;;5016935;28;20083;-70
2021/12/05 14:01:26;;;;;;;7.50;1.80;;;18.00;99.90;;;;;;5018512;28;20030;-70
2021/12/05 14:04:03;;;;;;;11.63;2.35;;;18.00;99.90;;;;;;5000825;28;20041;-71
2021/12/05 14:06:41;;;;;;;10.63;1.92;;;18.00;99.90;;;;;;5016484;28;20048;-72
2021/12/05 14:09:25;;;;;;;14.32;1.92;;;18.00;99.90;;;;;;5018599;28;20025;-69
2021/12/05 14:12:06;;;;;;;14.32;2.10;;;18.00;99.90;;;;;;5019079;28;20029;-69
2021/12/05 14:14:48;;;;;;;12.77;2.47;;;18.00;99.90;;;;;;5016140;28;20100;-72
2021/12/05 14:17:20;;;;;;;10.82;1.27;;;18.00;99.90;;;;;;5018703;28;20021;-69
2021/12/05 14:20:10;;;;;;;8.73;1.77;;;18.00;99.90;;;;;;5017378;28;20026;-70
2021/12/05 14:22:39;;;;;;;8.10;2.08;;;18.00;99.90;;;;;;5016180;28;20026;-69
2021/12/05 14:25:13;;;;;;;9.23;1.52;;;18.00;99.90;;;;;;5019171;28;20029;-69
2021/12/05 14:27:45;;;;;;;9.00;1.30;;;18.00;99.90;;;;;;5015615;28;20483;-68
2021/12/05 14:30:18;;;;;;;9.38;1.95;;;18.00;99.90;;;;;;5018234;28;20109;-67
2021/12/05 14:32:47;;;;;;;9.52;1.58;;;18.00;99.90;;;;;;5014582;28;20676;-69
2021/12/05 14:35:18;;;;;;;11.40;1.98;;;18.00;99.90;;;;;;5018198;28;20433;-69
2021/12/05 14:37:47;;;;;;;10.40;1.58;;;17.90;99.90;;;;;;5015398;28;20017;-68
2021/12/05 14:40:20;;;;;;;11.40;1.65;;;17.90;99.90;;;;;;5017891;28;20092;-71
2021/12/05 14:42:51;;;;;;;14.60;1.85;;;17.90;99.90;;;;;;5015775;28;20025;-69
2021/12/05 14:45:27;;;;;;;12.38;1.35;;;18.00;99.90;;;;;;5018605;28;20033;-70
2021/12/05 14:47:58;;;;;;;14.27;2.40;;;18.00;99.90;;;;;;5018093;28;20543;-68
2021/12/05 14:50:31;;;;;;;7.95;1.33;;;18.00;99.90;;;;;;5016969;28;20022;-70
2021/12/05 14:53:07;;;;;;;11.15;1.92;;;18.00;99.90;;;;;;5017358;28;20299;-69
2021/12/05 14:55:35;;;;;;;11.57;2.30;;;18.00;99.90;;;;;;5014942;28;20032;-69
2021/12/05 14:58:07;;;;;;;13.93;2.00;;;17.90;99.90;;;;;;5018417;28;20057;-68
2021/12/05 15:00:41;;;;;;;10.77;1.70;;;17.90;99.90;;;;;;5015282;28;20044;-71
2021/12/05 15:03:29;;;;;;;13.13;2.38;;;17.80;99.90;;;;;;5018514;28;20021;-69
2021/12/05 15:06:01;;;;;;;10.77;1.88;;;17.80;99.90;;;;;;5016156;28;20045;-70
2021/12/05 15:08:29;;;;;;;11.15;1.83;;;17.80;99.90;;;;;;5017083;28;20100;-71
2021/12/05 15:11:04;;;;;;;13.88;2.40;;;17.80;99.90;;;;;;5016411;28;20032;-70
2021/12/05 15:13:31;;;;;;;12.73;2.40;;;17.60;99.90;;;;;;5017187;28;20025;-71
2021/12/05 15:15:59;;;;;;;7.70;1.35;;;17.50;99.90;;;;;;5016362;28;20021;-69
2021/12/05 15:18:33;;;;;;;9.65;2.10;;;17.50;99.90;;;;;;5017785;28;20467;-67
2021/12/05 15:21:01;;;;;;;11.35;2.05;;;17.50;99.90;;;;;;5015135;28;20038;-66
2021/12/05 15:23:30;;;;;;;14.57;2.55;;;17.60;99.90;;;;;;5017710;28;20022;-68
2021/12/05 15:26:01;;;;;;;10.65;2.00;;;17.60;99.90;;;;;;5016039;28;20102;-69
2021/12/05 15:28:28;;;;;;;10.27;1.70;;;17.60;99.90;;;;;;5017713;28;20100;-67
2021/12/05 15:30:56;;;;;;;13.25;1.92;;;17.60;99.90;;;;;;5015935;28;20037;-67
2021/12/05 15:33:28;;;;;;;13.13;3.40;;;17.60;99.90;;;;;;5017468;28;20049;-68
2021/12/05 15:35:58;;;;;;;12.60;1.88;;;17.60;99.90;;;;;;5014883;28;20309;-68
2021/12/05 15:38:29;;;;;;;11.88;1.95;;;17.50;99.90;;;;;;5016810;28;20026;-67
2021/12/05 15:41:00;;;;;;;15.88;2.63;;;17.60;99.90;;;;;;5015301;28;20092;-67
2021/12/05 15:43:29;;;;;;;13.07;2.60;;;17.60;99.90;;;;;;5017830;28;20060;-67
2021/12/05 15:45:58;;;;;;;10.70;2.20;;;17.60;99.90;;;;;;5015322;28;20026;-67
2021/12/05 15:48:32;;;;;;;7.32;1.60;;;17.60;99.90;;;;;;5017569;28;20013;-68
2021/12/05 15:51:02;;;;;;;11.98;1.92;;;17.60;99.90;;;;;;5014097;28;20032;-71
2021/12/05 15:53:32;;;;;;;13.60;1.60;;;17.60;99.90;;;;;;5017629;28;20021;-70
2021/12/05 15:56:04;;;;;;;13.63;2.90;;;17.60;99.90;;;;;;5015247;28;20052;-70
2021/12/05 15:58:45;;;;;;;9.38;1.75;;;17.60;99.90;;;;;;5016225;28;20034;-68
2021/12/05 16:01:23;;;;;;;8.25;1.25;;;17.50;99.90;;;;;;5016045;28;20037;-68
2021/12/05 16:03:53;;;;;;;13.48;2.85;;;17.50;99.90;;;;;;5017092;28;20018;-69
2021/12/05 16:06:29;;;;;;;10.88;1.40;;;17.50;99.90;;;;;;5021310;28;20120;-69
2021/12/05 16:08:57;;;;;;;11.00;2.40;;;17.50;99.90;;;;;;5018851;28;20072;-70
2021/12/05 16:11:24;;;;;;;9.55;1.77;;;17.40;99.90;;;;;;5021219;28;20040;-69
2021/12/05 16:13:54;;;;;;;10.82;2.13;;;17.40;99.90;;;;;;5020456;28;20057;-67
2021/12/05 16:16:25;;;;;;;14.68;2.05;;;17.40;99.90;;;;;;5020809;28;20021;-69
2021/12/05 16:18:57;;;;;;;12.98;2.03;;;17.40;99.90;;;;;;5020230;28;20068;-68
2021/12/05 16:21:28;;;;;;;8.30;1.77;;;17.50;99.90;;;;;;5020139;28;20041;-67
2021/12/05 16:24:17;;;;;;;10.70;1.40;;;17.50;99.90;;;;;;5019471;28;20029;-70
2021/12/05 16:26:47;;;;;;;11.95;2.47;;;17.50;99.90;;;;;;5019748;28;20022;-69
2021/12/05 16:29:23;;;;;;;14.38;2.00;;;17.50;99.90;;;;;;5019071;28;20494;-67
2021/12/05 16:31:59;;;;;;;7.65;1.35;;;17.50;99.90;;;;;;5018898;28;20029;-67
2021/12/05 16:34:37;;;;;;;8.20;1.35;;;17.60;99.90;;;;;;5020479;28;20026;-69
2021/12/05 16:37:07;;;;;;;9.48;1.40;;;17.60;99.90;;;;;;5016663;28;20777;-68
2021/12/05 16:39:39;;;;;;;13.77;2.72;;;17.70;99.90;;;;;;5019000;28;20033;-70
2021/12/05 16:42:16;;;;;;;11.37;1.40;;;17.70;99.90;;;;;;5018483;28;20029;-67
2021/12/05 16:44:58;;;;;;;11.02;1.40;;;17.80;99.90;;;;;;5019991;28;20466;-67
2021/12/05 16:47:31;;;;;;;9.77;1.95;;;17.80;99.90;;;;;;5019738;28;20017;-68
2021/12/05 16:50:00;;;;;;;5.88;1.40;;;17.80;99.90;;;;;;5019624;28;20112;-69
2021/12/05 16:52:42;;;;;;;12.50;1.65;;;17.80;99.90;;;;;;5020088;28;20509;-70
2021/12/05 16:55:23;;;;;;;6.50;1.60;;;17.90;99.90;;;;;;5019173;28;20029;-67
2021/12/05 16:58:14;;;;;;;9.73;1.75;;;17.90;99.90;;;;;;5018166;28;20033;-68
2021/12/05 17:00:49;;;;;;;9.65;1.38;;;17.90;99.90;;;;;;5019307;28;20037;-68
2021/12/05 17:03:24;;;;;;;5.35;1.20;;;17.90;99.90;;;;;;5019328;28;20022;-67
2021/12/05 17:05:59;;;;;;;7.10;1.60;;;17.80;99.90;;;;;;5018744;28;20467;-69
2021/12/05 17:08:28;;;;;;;5.97;1.70;;;17.90;99.90;;;;;;5018755;28;20026;-68
2021/12/05 17:11:12;;;;;;;9.75;1.65;;;17.80;99.90;;;;;;5018624;28;20090;-67
2021/12/05 17:13:52;;;;;;;8.70;1.42;;;17.80;99.90;;;;;;5018597;28;20041;-68
2021/12/05 17:16:24;;;;;;;8.68;1.38;;;17.80;99.90;;;;;;5018961;28;20076;-67
2021/12/05 17:18:58;;;;;;;11.85;1.80;;;17.90;99.90;;;;;;5019025;28;20116;-70
2021/12/05 17:21:31;;;;;;;7.60;2.58;;;17.80;99.90;;;;;;5018899;28;20068;-67
2021/12/05 17:24:17;;;;;;;10.43;1.35;;;17.80;99.90;;;;;;5018662;28;20657;-67
2021/12/05 17:26:54;;;;;;;9.63;1.40;;;17.90;99.90;;;;;;5018869;28;20022;-69
2021/12/05 17:29:24;;;;;;;5.68;1.20;;;17.90;99.90;;;;;;5018387;28;20042;-67
2021/12/05 17:31:58;;;;;;;6.75;1.20;;;17.80;99.90;;;;;;5019542;28;20497;-68
2021/12/05 17:34:37;;;;;;;6.32;1.00;;;17.90;99.90;;;;;;5018463;28;20033;-67
2021/12/05 17:37:05;;;;;;;12.70;2.25;;;17.90;99.90;;;;;;5018913;28;20144;-69
2021/12/05 17:39:38;;;;;;;6.97;1.90;;;17.90;99.90;;;;;;5018060;28;20026;-70
2021/12/05 17:42:15;;;;;;;11.43;1.38;;;17.80;99.90;;;;;;5018567;28;20033;-71
2021/12/05 17:44:44;;;;;;;12.20;1.52;;;17.80;99.90;;;;;;5018527;28;20064;-71
2021/12/05 17:47:13;;;;;;;10.10;1.85;;;17.90;99.90;;;;;;5018364;28;20885;-70
2021/12/05 17:49:43;;;;;;;9.63;1.52;;;17.80;99.90;;;;;;5018118;28;20075;-70
2021/12/05 17:52:13;;;;;;;8.70;1.27;;;17.80;99.90;;;;;;5018149;28;20091;-69
2021/12/05 17:57:18;;;;;;;14.23;1.40;;;17.80;99.90;;;;;;5017365;28;20036;-68
2021/12/05 18:05:01;;;;;;;7.18;1.38;;;17.40;99.90;;;;;;5018021;28;20114;-67
2021/12/05 18:07:28;;;;;;;9.18;1.80;;;17.40;99.90;;;;;;5018258;28;20034;-68
2021/12/05 18:09:56;;;;;;;10.45;1.70;;;17.30;99.90;;;;;;5018430;28;20029;-66
2021/12/05 18:12:33;;;;;;;12.05;2.67;;;17.30;99.90;;;;;;5017611;28;20108;-67
2021/12/05 18:15:16;;;;;;;9.98;1.88;;;17.30;99.90;;;;;;5017924;28;20419;-68
2021/12/05 18:17:43;;;;;;;7.03;1.85;;;17.40;99.90;;;;;;5018836;28;20024;-71
2021/12/05 18:20:15;;;;;;;10.55;1.20;;;17.40;99.90;;;;;;5015756;28;20038;-71
2021/12/05 18:22:43;;;;;;;10.32;1.50;;;17.40;99.90;;;;;;5018249;28;20024;-69
2021/12/05 18:25:12;;;;;;;9.00;2.00;;;17.40;99.90;;;;;;5017764;28;20017;-68
2021/12/05 18:27:41;;;;;;;13.38;2.60;;;17.40;99.90;;;;;;5017180;28;20848;-69
2021/12/05 18:30:11;;;;;;;10.20;1.88;;;17.40;99.90;;;;;;5016590;28;20398;-71
2021/12/05 18:32:38;;;;;;;12.40;2.67;;;17.40;99.90;;;;;;5017016;28;20028;-68
2021/12/05 18:35:08;;;;;;;10.00;1.58;;;17.50;99.90;;;;;;5017056;28;20053;-69
2021/12/05 18:37:35;;;;;;;8.98;1.85;;;17.50;99.90;;;;;;5017450;28;20490;-69
2021/12/05 18:40:06;;;;;;;11.75;1.77;;;17.40;99.90;;;;;;5017515;28;20029;-69
2021/12/05 18:42:33;;;;;;;10.13;1.65;;;17.40;99.90;;;;;;5017581;28;20048;-67
2021/12/05 18:45:04;;;;;;;9.93;1.50;;;17.40;99.90;;;;;;5018054;28;20108;-69
2021/12/05 18:47:31;;;;;;;10.38;1.75;;;17.40;99.90;;;;;;5017367;28;20045;-67